createdAt,value
2023-04-06T00:02:02.567Z,19.09
2023-04-06T00:04:29.342Z,19.09
2023-04-06T00:06:58.798Z,19.09
2023-04-06T00:09:27.606Z,19.10
2023-04-06T00:12:06.431Z,19.12
2023-04-06T00:14:37.112Z,19.09
2023-04-06T00:17:09.560Z,19.08
2023-04-06T00:20:08.519Z,19.10
2023-04-06T00:22:41.254Z,19.09
2023-04-06T00:25:09.433Z,19.10
2023-04-06T00:27:37.982Z,19.10
2023-04-06T00:30:09.730Z,19.12
2023-04-06T00:32:37.370Z,19.12
2023-04-06T00:35:10.971Z,19.11
2023-04-06T00:37:40.598Z,19.11
2023-04-06T00:40:11.011Z,19.12
2023-04-06T00:42:42.414Z,19.11
2023-04-06T00:45:10.944Z,19.12
2023-04-06T00:47:39.205Z,19.10
2023-04-06T00:50:08.774Z,19.09
2023-04-06T00:52:36.891Z,19.08
2023-04-06T00:55:10.108Z,19.08
2023-04-06T00:57:38.778Z,19.10
2023-04-06T01:00:06.228Z,16.88
2023-04-06T01:02:34.293Z,16.32
2023-04-06T01:05:03.441Z,17.34
2023-04-06T01:07:33.061Z,17.79
2023-04-06T01:10:03.886Z,17.98
2023-04-06T01:12:33.735Z,18.07
2023-04-06T01:15:00.798Z,18.13
2023-04-06T01:17:29.647Z,18.19
2023-04-06T01:19:56.574Z,18.27
2023-04-06T01:22:26.289Z,18.32
2023-04-06T01:24:57.723Z,18.35
2023-04-06T01:27:29.098Z,18.41
2023-04-06T01:30:00.411Z,18.44
2023-04-06T01:32:30.440Z,18.48
2023-04-06T01:34:57.181Z,18.52
2023-04-06T01:37:24.003Z,18.56
2023-04-06T01:39:53.839Z,18.58
2023-04-06T01:42:20.997Z,18.63
2023-04-06T01:44:47.687Z,18.67
2023-04-06T01:47:14.434Z,18.70
2023-04-06T01:49:43.342Z,18.72
2023-04-06T01:52:12.200Z,18.73
2023-04-06T01:54:38.912Z,18.77
2023-04-06T01:57:08.034Z,18.78
2023-04-06T01:59:36.934Z,18.80
2023-04-06T02:02:08.304Z,18.83
2023-04-06T02:04:34.973Z,18.85
2023-04-06T02:07:06.293Z,18.87
2023-04-06T02:09:35.575Z,18.89
2023-04-06T02:12:04.380Z,18.88
2023-04-06T02:14:31.212Z,18.91
2023-04-06T02:16:58.041Z,18.89
2023-04-06T02:19:28.023Z,18.94
2023-04-06T02:21:59.872Z,18.93
2023-04-06T02:24:28.848Z,18.94
2023-04-06T02:26:55.968Z,18.96
2023-04-06T02:29:22.762Z,18.95
2023-04-06T02:31:54.231Z,18.95
2023-04-06T02:34:23.087Z,18.96
2023-04-06T02:36:49.736Z,18.96
2023-04-06T02:39:18.720Z,18.97
2023-04-06T02:41:45.715Z,18.95
2023-04-06T02:44:15.755Z,18.95
2023-04-06T02:46:44.625Z,18.96
2023-04-06T02:49:15.943Z,18.97
2023-04-06T02:51:44.821Z,18.97
2023-04-06T02:54:13.805Z,18.98
2023-04-06T02:56:42.803Z,18.97
2023-04-06T02:59:15.085Z,18.98
2023-04-06T03:01:43.890Z,18.98
2023-04-06T03:04:12.953Z,19.01
2023-04-06T03:06:41.741Z,19.01
2023-04-06T03:09:10.799Z,19.00
2023-04-06T03:11:42.799Z,19.02
2023-04-06T03:14:09.538Z,19.02
2023-04-06T03:16:38.411Z,19.04
2023-04-06T03:19:08.020Z,19.04
2023-04-06T03:21:34.814Z,19.05
2023-04-06T03:24:03.627Z,19.03
2023-04-06T03:26:32.426Z,19.05
2023-04-06T03:29:01.744Z,19.06
2023-04-06T03:31:28.570Z,19.05
2023-04-06T03:33:57.666Z,19.06
2023-04-06T03:36:24.372Z,19.05
2023-04-06T03:38:51.045Z,19.05
2023-04-06T03:41:20.531Z,19.05
2023-04-06T03:43:52.562Z,19.06
2023-04-06T03:46:21.590Z,19.04
2023-04-06T03:48:51.936Z,19.04
2023-04-06T03:51:18.662Z,19.04
2023-04-06T03:53:48.556Z,19.03
2023-04-06T03:56:17.434Z,19.03
2023-04-06T03:58:46.412Z,19.02
2023-04-06T04:01:15.232Z,19.03
2023-04-06T04:03:44.481Z,19.05
2023-04-06T04:06:13.342Z,19.04
2023-04-06T04:08:42.408Z,19.01
2023-04-06T04:11:11.273Z,19.02
2023-04-06T04:13:37.991Z,19.05
2023-04-06T04:16:10.005Z,19.04
2023-04-06T04:18:37.756Z,19.05
2023-04-06T04:21:04.663Z,19.06
2023-04-06T04:23:35.318Z,19.06
2023-04-06T04:26:05.556Z,19.07
2023-04-06T04:28:32.326Z,19.08
2023-04-06T04:31:01.532Z,19.08
2023-04-06T04:33:30.547Z,19.08
2023-04-06T04:35:59.451Z,19.08
2023-04-06T04:38:31.298Z,19.08
2023-04-06T04:41:02.751Z,19.09
2023-04-06T04:43:34.032Z,19.10
2023-04-06T04:46:00.677Z,19.08
2023-04-06T04:48:29.635Z,19.09
2023-04-06T04:50:58.996Z,19.09
2023-04-06T04:53:28.754Z,19.07
2023-04-06T04:55:57.565Z,19.07
2023-04-06T04:58:26.417Z,19.06
2023-04-06T05:00:55.417Z,19.05
2023-04-06T05:03:30.514Z,19.03
2023-04-06T05:05:57.227Z,19.04
2023-04-06T05:08:23.939Z,19.05
2023-04-06T05:10:50.664Z,19.05
2023-04-06T05:15:58.168Z,19.06
2023-04-06T05:18:27.877Z,17.87
2023-04-06T05:20:59.782Z,16.40
2023-04-06T05:23:26.441Z,16.31
2023-04-06T05:25:56.388Z,15.63
2023-04-06T05:28:23.401Z,15.38
2023-04-06T05:30:52.339Z,15.05
2023-04-06T05:33:21.349Z,15.39
2023-04-06T05:35:53.298Z,16.22
2023-04-06T05:38:22.300Z,16.59
2023-04-06T05:43:32.395Z,17.03
2023-04-06T05:46:01.478Z,17.15
2023-04-06T05:48:32.879Z,17.34
2023-04-06T05:51:01.454Z,17.48
2023-04-06T05:53:30.206Z,17.68
2023-04-06T05:56:03.633Z,17.81
2023-04-06T05:58:35.572Z,17.97
2023-04-06T06:01:02.464Z,18.10
2023-04-06T06:03:31.339Z,18.24
2023-04-06T06:06:05.600Z,18.26
2023-04-06T06:08:34.620Z,18.34
2023-04-06T06:11:03.441Z,18.41
2023-04-06T06:13:36.221Z,18.48
2023-04-06T06:16:06.247Z,18.53
2023-04-06T06:18:35.458Z,18.60
2023-04-06T06:21:02.103Z,18.67
2023-04-06T06:23:28.818Z,18.76
2023-04-06T06:25:57.678Z,18.82
2023-04-06T06:28:26.540Z,18.90
2023-04-06T06:30:53.214Z,19.02
2023-04-06T06:33:22.138Z,19.04
2023-04-06T06:35:53.589Z,19.09
2023-04-06T06:38:25.037Z,19.15
2023-04-06T06:40:51.838Z,19.21
2023-04-06T06:43:20.965Z,19.24
2023-04-06T06:45:53.511Z,19.25
2023-04-06T06:48:22.565Z,19.28
2023-04-06T06:50:51.880Z,19.29
2023-04-06T06:53:20.966Z,19.35
2023-04-06T06:55:49.848Z,19.36
2023-04-06T06:58:21.452Z,19.40
2023-04-06T07:00:50.973Z,19.43
2023-04-06T07:03:18.416Z,19.45
2023-04-06T07:05:54.367Z,19.47
2023-04-06T07:08:24.833Z,19.51
2023-04-06T07:10:53.767Z,19.54
2023-04-06T07:13:28.376Z,19.57
2023-04-06T07:15:55.139Z,19.59
2023-04-06T07:18:24.562Z,19.61
2023-04-06T07:20:55.909Z,19.63
2023-04-06T07:23:22.632Z,19.65
2023-04-06T07:25:51.900Z,19.67
2023-04-06T07:28:23.201Z,19.69
2023-04-06T07:30:52.263Z,19.71
2023-04-06T07:33:23.700Z,19.70
2023-04-06T07:35:52.551Z,19.74
2023-04-06T07:38:24.225Z,19.75
2023-04-06T07:40:53.577Z,19.76
2023-04-06T07:43:20.321Z,19.79
2023-04-06T07:45:51.852Z,19.81
2023-04-06T07:48:21.510Z,19.80
2023-04-06T07:50:50.407Z,19.83
2023-04-06T07:53:17.136Z,19.85
2023-04-06T07:55:43.867Z,19.85
2023-04-06T07:58:12.759Z,19.84
2023-04-06T08:00:42.086Z,19.88
2023-04-06T08:03:08.853Z,19.87
2023-04-06T08:05:37.725Z,19.86
2023-04-06T08:08:06.610Z,19.85
2023-04-06T08:10:35.480Z,19.83
2023-04-06T08:13:04.289Z,19.83
2023-04-06T08:15:31.207Z,19.85
2023-04-06T08:18:00.139Z,19.84
2023-04-06T08:20:26.997Z,19.83
2023-04-06T08:22:56.422Z,19.83
2023-04-06T08:25:25.244Z,19.81
2023-04-06T08:27:52.089Z,19.81
2023-04-06T08:30:20.856Z,19.82
2023-04-06T08:32:53.293Z,19.90
2023-04-06T08:35:22.612Z,20.00
2023-04-06T08:37:49.515Z,20.03
2023-04-06T08:40:16.289Z,19.96
2023-04-06T08:42:50.677Z,19.98
2023-04-06T08:45:18.494Z,19.96
2023-04-06T08:47:54.130Z,19.93
2023-04-06T08:50:23.216Z,19.97
2023-04-06T08:52:52.361Z,20.04
2023-04-06T08:55:21.737Z,19.99
2023-04-06T08:57:51.012Z,19.98
2023-04-06T09:00:17.881Z,20.03
2023-04-06T09:02:45.351Z,20.13
2023-04-06T09:05:16.724Z,20.08
2023-04-06T09:07:46.676Z,20.07
2023-04-06T09:10:18.094Z,20.08
2023-04-06T09:12:47.624Z,20.10
2023-04-06T09:15:25.804Z,20.12
2023-04-06T09:17:55.770Z,20.16
2023-04-06T09:20:29.379Z,20.26
2023-04-06T09:22:58.987Z,20.18
2023-04-06T09:25:28.304Z,20.16
2023-04-06T09:28:05.226Z,20.15
2023-04-06T09:30:32.022Z,20.16
2023-04-06T09:33:00.348Z,20.16
2023-04-06T09:35:32.369Z,20.32
2023-04-06T09:38:01.297Z,20.31
2023-04-06T09:40:33.167Z,20.25
2023-04-06T09:43:02.268Z,20.24
2023-04-06T09:45:32.118Z,20.27
2023-04-06T09:47:59.512Z,20.39
2023-04-06T09:50:26.337Z,20.44
2023-04-06T09:52:56.211Z,20.39
2023-04-06T09:55:35.588Z,20.43
2023-04-06T09:58:11.314Z,20.40
2023-04-06T10:01:16.673Z,20.39
2023-04-06T10:03:53.028Z,20.40
2023-04-06T10:06:26.717Z,20.40
2023-04-06T10:08:55.592Z,20.41
2023-04-06T10:11:28.551Z,20.39
2023-04-06T10:13:58.031Z,20.49
2023-04-06T10:16:30.566Z,20.37
2023-04-06T10:19:05.665Z,20.37
2023-04-06T10:21:35.679Z,20.29
2023-04-06T10:24:11.848Z,20.28
2023-04-06T10:26:41.239Z,20.23
2023-04-06T10:29:11.259Z,20.21
2023-04-06T10:31:45.156Z,20.23
2023-04-06T10:34:12.181Z,20.21
2023-04-06T10:36:39.778Z,20.20
2023-04-06T10:39:09.521Z,20.16
2023-04-06T10:41:49.974Z,20.27
2023-04-06T10:44:24.550Z,20.31
2023-04-06T10:47:03.761Z,20.31
2023-04-06T10:49:30.661Z,20.28
2023-04-06T10:51:58.816Z,20.27
2023-04-06T10:54:28.878Z,20.39
2023-04-06T10:56:57.873Z,20.35
2023-04-06T10:59:29.337Z,20.44
2023-04-06T11:01:57.474Z,20.43
2023-04-06T11:04:27.139Z,20.42
2023-04-06T11:06:55.010Z,20.37
2023-04-06T11:09:28.487Z,20.34
2023-04-06T11:11:57.989Z,20.31
2023-04-06T11:14:26.963Z,20.31
2023-04-06T11:16:55.940Z,20.30
2023-04-06T11:19:23.776Z,20.31
2023-04-06T11:21:52.801Z,20.28
2023-04-06T11:24:21.097Z,20.27
2023-04-06T11:26:53.418Z,20.26
2023-04-06T11:29:26.748Z,20.32
2023-04-06T11:31:54.738Z,20.38
2023-04-06T11:34:25.369Z,20.36
2023-04-06T11:36:59.030Z,20.36
2023-04-06T11:39:32.859Z,20.31
2023-04-06T11:42:04.989Z,20.23
2023-04-06T11:44:39.636Z,20.20
2023-04-06T11:47:10.836Z,20.18
2023-04-06T11:49:41.842Z,20.20
2023-04-06T11:52:20.866Z,20.21
2023-04-06T11:54:49.529Z,20.17
2023-04-06T11:57:19.352Z,20.16
2023-04-06T11:59:46.581Z,20.16
2023-04-06T12:02:13.412Z,20.16
2023-04-06T12:04:43.632Z,20.14
2023-04-06T12:07:13.633Z,20.16
2023-04-06T12:09:45.072Z,20.14
2023-04-06T12:12:11.685Z,20.13
2023-04-06T12:14:40.485Z,20.12
2023-04-06T12:17:07.274Z,20.20
2023-04-06T12:19:35.262Z,20.20
2023-04-06T12:22:01.909Z,20.24
2023-04-06T12:24:29.665Z,20.24
2023-04-06T12:27:08.567Z,20.22
2023-04-06T12:29:39.175Z,20.24
2023-04-06T12:32:08.030Z,20.26
2023-04-06T12:34:34.777Z,20.30
2023-04-06T12:37:03.815Z,20.33
2023-04-06T12:39:31.226Z,20.36
2023-04-06T12:41:58.285Z,20.39
2023-04-06T12:44:26.317Z,20.42
2023-04-06T12:46:56.640Z,20.46
2023-04-06T12:49:26.826Z,20.49
2023-04-06T12:51:53.701Z,20.59
2023-04-06T12:54:22.010Z,20.54
2023-04-06T12:56:52.943Z,20.65
2023-04-06T12:59:26.401Z,20.65
2023-04-06T13:01:57.380Z,20.66
2023-04-06T13:04:27.867Z,20.68
2023-04-06T13:06:56.942Z,20.68
2023-04-06T13:09:27.233Z,20.69
2023-04-06T13:11:53.904Z,20.68
2023-04-06T13:14:24.537Z,20.69
2023-04-06T13:16:56.060Z,20.65
2023-04-06T13:19:29.653Z,20.63
2023-04-06T13:21:58.804Z,20.60
2023-04-06T13:24:27.193Z,20.62
2023-04-06T13:26:55.319Z,20.59
2023-04-06T13:29:24.485Z,20.57
2023-04-06T13:31:53.848Z,20.57
2023-04-06T13:34:25.349Z,20.56
2023-04-06T13:36:52.323Z,20.57
2023-04-06T13:39:20.407Z,20.56
2023-04-06T13:41:49.457Z,20.54
2023-04-06T13:44:16.362Z,20.54
2023-04-06T13:46:47.074Z,20.52
2023-04-06T13:49:19.070Z,20.52
2023-04-06T13:51:48.978Z,20.49
2023-04-06T13:54:20.746Z,20.48
2023-04-06T13:56:52.767Z,20.45
2023-04-06T13:59:22.432Z,20.44
2023-04-06T14:01:51.785Z,20.42
2023-04-06T14:04:23.770Z,20.40
2023-04-06T14:06:51.666Z,20.40
2023-04-06T14:09:20.686Z,20.39
2023-04-06T14:11:50.544Z,20.39
2023-04-06T14:14:18.038Z,20.39
2023-04-06T14:16:47.954Z,20.37
2023-04-06T14:19:19.284Z,20.36
2023-04-06T14:21:46.559Z,20.35
2023-04-06T14:24:17.316Z,20.35
2023-04-06T14:26:48.588Z,20.36
2023-04-06T14:29:18.099Z,20.35
2023-04-06T14:31:51.074Z,20.36
2023-04-06T14:34:18.255Z,20.36
2023-04-06T14:36:47.414Z,20.38
2023-04-06T14:39:14.229Z,20.38
2023-04-06T14:41:41.916Z,20.40
2023-04-06T14:44:13.158Z,20.40
2023-04-06T14:46:45.520Z,20.41
2023-04-06T14:49:12.312Z,20.43
2023-04-06T14:51:43.879Z,20.43
2023-04-06T14:54:15.896Z,20.45
2023-04-06T14:56:44.803Z,20.45
2023-04-06T14:59:15.568Z,20.46
2023-04-06T15:01:47.056Z,20.45
2023-04-06T15:04:15.180Z,20.45
2023-04-06T15:06:44.292Z,20.48
2023-04-06T15:09:12.650Z,20.47
2023-04-06T15:11:44.576Z,20.47
2023-04-06T15:14:11.301Z,20.46
2023-04-06T15:16:40.864Z,20.47
2023-04-06T15:19:09.652Z,20.46
2023-04-06T15:21:38.848Z,20.39
2023-04-06T15:24:07.399Z,20.35
2023-04-06T15:26:38.655Z,20.38
2023-04-06T15:29:10.110Z,20.48
2023-04-06T15:31:38.748Z,20.48
2023-04-06T15:34:08.629Z,20.46
2023-04-06T15:36:37.750Z,20.44
2023-04-06T15:39:07.047Z,20.45
2023-04-06T15:41:36.638Z,20.43
2023-04-06T15:44:05.404Z,20.43
2023-04-06T15:46:34.487Z,20.44
2023-04-06T15:49:01.693Z,20.43
2023-04-06T15:51:31.603Z,20.43
2023-04-06T15:53:58.757Z,20.43
2023-04-06T15:56:27.820Z,20.39
2023-04-06T15:58:57.688Z,20.35
2023-04-06T16:01:24.408Z,20.34
2023-04-06T16:03:51.203Z,20.30
2023-04-06T16:06:19.269Z,20.26
2023-04-06T16:08:49.202Z,20.23
2023-04-06T16:11:18.461Z,20.21
2023-04-06T16:13:50.078Z,20.21
2023-04-06T16:16:22.104Z,20.24
2023-04-06T16:18:53.578Z,20.31
2023-04-06T16:21:24.936Z,20.34
2023-04-06T16:23:51.522Z,20.27
2023-04-06T16:26:18.322Z,20.37
2023-04-06T16:28:47.193Z,20.38
2023-04-06T16:31:22.877Z,20.35
2023-04-06T16:33:50.602Z,20.34
2023-04-06T16:36:30.163Z,20.32
2023-04-06T16:38:59.655Z,20.30
2023-04-06T16:41:29.305Z,20.29
2023-04-06T16:43:58.342Z,20.26
2023-04-06T16:46:34.930Z,20.25
2023-04-06T16:49:04.965Z,20.26
2023-04-06T16:51:37.182Z,20.25
2023-04-06T16:54:04.145Z,20.24
2023-04-06T16:56:31.678Z,20.21
2023-04-06T16:58:58.408Z,20.20
2023-04-06T17:01:30.896Z,20.17
2023-04-06T17:03:59.912Z,20.17
2023-04-06T17:06:28.949Z,20.11
2023-04-06T17:08:55.822Z,20.13
2023-04-06T17:11:31.710Z,20.15
2023-04-06T17:14:02.764Z,20.14
2023-04-06T17:16:31.688Z,20.14
2023-04-06T17:19:00.935Z,20.13
2023-04-06T17:21:30.935Z,20.12
2023-04-06T17:23:59.813Z,20.12
2023-04-06T17:26:28.765Z,20.11
2023-04-06T17:28:57.603Z,20.11
2023-04-06T17:31:24.184Z,20.11
2023-04-06T17:33:54.369Z,20.08
2023-04-06T17:36:24.368Z,20.08
2023-04-06T17:38:51.346Z,20.06
2023-04-06T17:41:20.228Z,20.06
2023-04-06T17:43:51.709Z,20.04
2023-04-06T17:46:20.752Z,20.03
2023-04-06T17:48:52.010Z,20.03
2023-04-06T17:51:21.480Z,20.02
2023-04-06T17:53:50.449Z,20.01
2023-04-06T17:56:24.402Z,19.99
2023-04-06T17:58:53.165Z,19.98
2023-04-06T18:01:22.004Z,19.99
2023-04-06T18:03:53.643Z,19.96
2023-04-06T18:06:20.592Z,19.94
2023-04-06T18:08:49.376Z,19.94
2023-04-06T18:11:19.756Z,19.93
2023-04-06T18:13:46.363Z,19.91
2023-04-06T18:16:16.422Z,19.90
2023-04-06T18:18:43.178Z,19.90
2023-04-06T18:21:12.349Z,19.86
2023-04-06T18:23:39.063Z,19.86
2023-04-06T18:26:06.132Z,19.86
2023-04-06T18:28:33.473Z,19.84
2023-04-06T18:31:02.464Z,19.83
2023-04-06T18:33:32.765Z,19.83
2023-04-06T18:36:02.076Z,19.82
2023-04-06T18:38:31.504Z,19.80
2023-04-06T18:40:59.012Z,19.79
2023-04-06T18:43:28.540Z,19.80
2023-04-06T18:45:55.365Z,19.80
2023-04-06T18:48:22.206Z,19.78
2023-04-06T18:50:57.796Z,19.79
2023-04-06T18:53:24.830Z,19.78
2023-04-06T18:55:55.109Z,19.78
2023-04-06T18:58:25.033Z,19.78
2023-04-06T19:00:52.799Z,19.75
2023-04-06T19:03:22.591Z,19.75
2023-04-06T19:05:55.152Z,19.74
2023-04-06T19:11:07.090Z,19.72
2023-04-06T19:13:38.256Z,19.72
2023-04-06T19:16:10.917Z,19.72
2023-04-06T19:18:46.493Z,19.72
2023-04-06T19:21:41.091Z,19.70
2023-04-06T19:24:11.384Z,19.70
2023-04-06T19:26:42.611Z,19.70
2023-04-06T19:29:10.874Z,19.69
2023-04-06T19:31:40.847Z,19.69
2023-04-06T19:34:08.178Z,19.69
2023-04-06T19:36:36.927Z,19.68
2023-04-06T19:39:06.247Z,19.69
2023-04-06T19:41:38.387Z,19.68
2023-04-06T19:44:05.011Z,19.68
2023-04-06T19:46:34.710Z,19.66
2023-04-06T19:49:05.498Z,19.66
2023-04-06T19:51:36.321Z,19.66
2023-04-06T19:54:11.117Z,19.66
2023-04-06T19:56:40.550Z,19.66
2023-04-06T19:59:07.396Z,19.64
2023-04-06T20:01:58.305Z,19.64
2023-04-06T20:04:30.236Z,19.65
2023-04-06T20:06:59.683Z,19.63
2023-04-06T20:09:28.629Z,19.64
2023-04-06T20:11:58.385Z,19.63
2023-04-06T20:14:31.937Z,19.64
2023-04-06T20:17:02.943Z,19.62
2023-04-06T20:19:30.622Z,19.62
2023-04-06T20:22:03.543Z,19.62
2023-04-06T20:24:38.834Z,19.61
2023-04-06T20:27:25.515Z,19.61
2023-04-06T20:29:55.447Z,19.61
2023-04-06T20:32:24.642Z,19.61
2023-04-06T20:34:52.680Z,19.60
2023-04-06T20:37:22.670Z,19.59
2023-04-06T20:39:52.456Z,19.60
2023-04-06T20:42:21.662Z,19.59
2023-04-06T20:44:53.252Z,19.60
2023-04-06T20:47:25.572Z,19.58
2023-04-06T20:49:55.736Z,19.44
2023-04-06T20:52:23.830Z,18.33
2023-04-06T20:54:56.892Z,17.53
2023-04-06T20:57:24.960Z,16.77
2023-04-06T21:08:43.467Z,15.68
2023-04-06T21:11:11.588Z,15.57
2023-04-06T21:13:43.837Z,15.16
2023-04-06T21:16:11.814Z,15.78
2023-04-06T21:18:38.936Z,16.12
2023-04-06T21:21:10.888Z,16.29
2023-04-06T21:23:42.271Z,16.12
2023-04-06T21:26:14.611Z,15.43
2023-04-06T21:28:43.578Z,15.11
2023-04-06T21:34:03.362Z,15.66
2023-04-06T21:36:33.351Z,15.88
2023-04-06T21:39:00.720Z,16.10
2023-04-06T21:41:32.811Z,16.18
2023-04-06T21:44:01.772Z,16.26
2023-04-06T21:46:31.630Z,16.33
2023-04-06T21:49:03.838Z,16.42
2023-04-06T21:51:33.763Z,16.51
2023-04-06T21:54:02.921Z,16.61
2023-04-06T21:56:30.217Z,16.69
2023-04-06T21:58:59.646Z,16.77
2023-04-06T22:01:28.822Z,16.84
2023-04-06T22:04:00.532Z,16.93
2023-04-06T22:06:30.368Z,17.00
2023-04-06T22:09:00.407Z,17.07
2023-04-06T22:11:27.039Z,17.13
2023-04-06T22:13:56.316Z,17.20
2023-04-06T22:16:23.132Z,17.26
2023-04-06T22:18:51.225Z,17.32
2023-04-06T22:21:19.544Z,17.38
2023-04-06T22:23:49.753Z,17.43
2023-04-06T22:26:16.513Z,17.47
2023-04-06T22:28:43.277Z,17.54
2023-04-06T22:31:14.703Z,17.60
2023-04-06T22:33:42.362Z,17.63
2023-04-06T22:36:11.685Z,17.68
2023-04-06T22:38:43.981Z,17.74
2023-04-06T22:41:11.034Z,17.77
2023-04-06T22:43:37.917Z,17.81
2023-04-06T22:46:05.983Z,17.85
2023-04-06T22:48:37.944Z,17.89
2023-04-06T22:51:08.518Z,17.94
2023-04-06T22:53:35.395Z,17.97
2023-04-06T22:56:02.433Z,18.00
2023-04-06T22:58:31.421Z,18.02
2023-04-06T23:01:01.274Z,18.06
2023-04-06T23:03:32.569Z,18.06
2023-04-06T23:06:00.448Z,18.12
2023-04-06T23:08:38.115Z,18.11
2023-04-06T23:11:14.384Z,18.16
2023-04-06T23:13:43.377Z,18.18
2023-04-06T23:16:15.195Z,18.21
2023-04-06T23:18:47.146Z,18.23
2023-04-06T23:21:16.388Z,18.24
2023-04-06T23:23:43.039Z,18.26
2023-04-06T23:26:09.784Z,18.30
2023-04-06T23:28:38.789Z,18.30
2023-04-06T23:31:07.771Z,18.34
2023-04-06T23:33:36.953Z,18.35
2023-04-06T23:36:03.783Z,18.35
2023-04-06T23:38:37.112Z,18.38
2023-04-06T23:41:05.926Z,18.40
2023-04-06T23:43:32.577Z,18.41
2023-04-06T23:46:01.957Z,18.42
2023-04-06T23:48:33.898Z,18.43
2023-04-06T23:51:05.621Z,18.44
2023-04-06T23:53:42.430Z,18.47
2023-04-06T23:56:11.233Z,18.46
2023-04-06T23:58:47.696Z,18.48
